createdAt,value
2019-04-09T00:01:50.977Z,20.67
2019-04-09T00:04:20.995Z,16.40
2019-04-09T00:06:56.395Z,17.60
2019-04-09T00:09:29.282Z,18.93
2019-04-09T00:12:00.260Z,17.83
2019-04-09T00:14:29.172Z,15.43
2019-04-09T00:17:01.717Z,15.47
2019-04-09T00:19:30.871Z,19.33
2019-04-09T00:21:59.763Z,17.07
2019-04-09T00:24:30.698Z,17.40
2019-04-09T00:26:59.474Z,15.10
2019-04-09T00:29:30.520Z,15.40
2019-04-09T00:32:02.194Z,19.70
2019-04-09T00:34:31.527Z,14.03
2019-04-09T00:37:00.462Z,13.47
2019-04-09T00:39:29.207Z,13.63
2019-04-09T00:42:07.634Z,14.17
2019-04-09T00:44:41.281Z,13.40
2019-04-09T00:47:10.202Z,13.30
2019-04-09T00:49:41.576Z,12.70
2019-04-09T00:52:12.309Z,15.60
2019-04-09T00:54:43.585Z,11.57
2019-04-09T00:57:12.335Z,11.30
2019-04-09T00:59:42.488Z,11.63
2019-04-09T01:02:11.467Z,13.00
2019-04-09T01:04:41.310Z,12.97
2019-04-09T01:07:12.405Z,10.97
2019-04-09T01:09:41.348Z,12.50
2019-04-09T01:12:13.058Z,11.20
2019-04-09T01:14:42.086Z,10.13
2019-04-09T01:17:13.367Z,10.63
2019-04-09T01:19:42.640Z,11.17
2019-04-09T01:22:12.390Z,9.67
2019-04-09T01:24:43.589Z,8.07
2019-04-09T01:27:28.894Z,12.77
2019-04-09T01:29:59.581Z,9.33
2019-04-09T01:32:36.264Z,12.20
2019-04-09T01:35:10.269Z,10.40
2019-04-09T01:37:43.157Z,13.37
2019-04-09T01:40:13.735Z,11.77
2019-04-09T01:43:02.159Z,8.27
2019-04-09T01:45:33.258Z,10.07
2019-04-09T01:48:13.745Z,11.87
2019-04-09T01:50:45.778Z,9.10
2019-04-09T01:53:27.486Z,9.10
2019-04-09T01:55:58.183Z,12.63
2019-04-09T01:58:45.156Z,9.87
2019-04-09T02:01:28.085Z,12.50
2019-04-09T02:04:05.888Z,11.67
2019-04-09T02:06:53.945Z,10.10
2019-04-09T02:09:40.094Z,9.47
2019-04-09T02:12:14.498Z,9.73
2019-04-09T02:15:02.861Z,14.60
2019-04-09T02:17:34.869Z,12.93
2019-04-09T02:20:10.489Z,9.17
2019-04-09T02:22:57.425Z,9.50
2019-04-09T02:25:30.824Z,10.00
2019-04-09T02:28:17.527Z,10.50
2019-04-09T02:30:49.898Z,9.90
2019-04-09T02:33:21.512Z,16.17
2019-04-09T02:35:57.455Z,9.77
2019-04-09T02:38:38.762Z,11.10
2019-04-09T02:41:12.660Z,11.43
2019-04-09T02:43:55.150Z,13.83
2019-04-09T02:46:41.395Z,11.97
2019-04-09T02:49:15.305Z,12.17
2019-04-09T02:51:58.984Z,21.87
2019-04-09T02:54:29.348Z,13.07
2019-04-09T02:57:00.004Z,9.77
2019-04-09T02:59:46.793Z,9.87
2019-04-09T03:02:23.618Z,14.00
2019-04-09T03:05:06.621Z,9.20
2019-04-09T03:07:44.827Z,12.33
2019-04-09T03:10:32.789Z,8.20
2019-04-09T03:13:14.284Z,8.03
2019-04-09T03:16:02.835Z,9.87
2019-04-09T03:18:37.830Z,8.23
2019-04-09T03:21:09.569Z,7.67
2019-04-09T03:23:58.037Z,18.63
2019-04-09T03:26:49.331Z,9.97
2019-04-09T03:29:23.054Z,7.40
2019-04-09T03:32:07.426Z,8.80
2019-04-09T03:34:39.202Z,7.47
2019-04-09T03:37:18.800Z,8.37
2019-04-09T03:40:02.918Z,7.33
2019-04-09T03:42:47.026Z,7.67
2019-04-09T03:45:22.913Z,11.73
2019-04-09T03:47:56.834Z,9.07
2019-04-09T03:50:37.588Z,10.20
2019-04-09T03:53:18.664Z,9.00
2019-04-09T03:56:06.170Z,9.97
2019-04-09T03:58:42.094Z,12.77
2019-04-09T04:01:24.193Z,11.83
2019-04-09T04:04:10.423Z,10.83
2019-04-09T04:06:42.172Z,13.13
2019-04-09T04:09:17.490Z,10.83
2019-04-09T04:11:52.158Z,11.97
2019-04-09T04:14:30.162Z,9.97
2019-04-09T04:17:06.172Z,10.33
2019-04-09T04:19:56.120Z,9.30
2019-04-09T04:22:46.060Z,10.60
2019-04-09T04:25:32.600Z,11.27
2019-04-09T04:28:07.557Z,9.70
2019-04-09T04:30:50.239Z,11.27
2019-04-09T04:33:33.556Z,10.60
2019-04-09T04:36:23.243Z,12.73
2019-04-09T04:38:57.674Z,11.00
2019-04-09T04:41:34.325Z,11.50
2019-04-09T04:44:16.775Z,9.60
2019-04-09T04:46:53.536Z,10.63
2019-04-09T04:49:23.664Z,11.77
2019-04-09T04:51:56.990Z,11.63
2019-04-09T04:54:34.426Z,11.67
2019-04-09T04:57:07.637Z,9.67
2019-04-09T04:59:38.206Z,10.37
2019-04-09T05:02:12.910Z,12.33
2019-04-09T05:04:44.150Z,8.93
2019-04-09T05:07:39.038Z,10.67
2019-04-09T05:10:03.545Z,9.07
2019-04-09T05:12:53.232Z,13.13
2019-04-09T05:15:39.521Z,10.97
2019-04-09T05:18:11.125Z,12.23
2019-04-09T05:20:59.775Z,14.00
2019-04-09T05:23:36.823Z,10.17
2019-04-09T05:26:22.487Z,11.10
2019-04-09T05:29:04.032Z,12.53
2019-04-09T05:31:41.199Z,9.13
2019-04-09T05:34:27.925Z,10.23
2019-04-09T05:37:07.088Z,8.70
2019-04-09T05:39:42.013Z,11.07
2019-04-09T05:42:15.621Z,11.47
2019-04-09T05:45:02.754Z,13.70
2019-04-09T05:47:36.812Z,15.93
2019-04-09T05:50:13.451Z,17.37
2019-04-09T05:52:44.952Z,20.83
2019-04-09T05:55:24.704Z,13.50
2019-04-09T05:57:55.052Z,25.97
2019-04-09T06:00:28.523Z,35.13
2019-04-09T06:03:17.727Z,37.63
2019-04-09T06:05:51.275Z,51.43
2019-04-09T06:08:25.990Z,47.73
2019-04-09T06:10:55.596Z,37.30
2019-04-09T06:13:25.441Z,21.90
2019-04-09T06:15:55.361Z,13.33
2019-04-09T06:18:24.087Z,18.60
2019-04-09T06:20:52.529Z,20.23
2019-04-09T06:23:21.766Z,13.43
2019-04-09T06:25:51.495Z,4.83
2019-04-09T06:28:20.362Z,6.13
2019-04-09T06:30:49.490Z,3.63
2019-04-09T06:33:37.829Z,5.23
2019-04-09T06:36:14.936Z,5.60
2019-04-09T06:39:04.296Z,7.10
2019-04-09T06:41:35.271Z,3.70
2019-04-09T06:44:10.576Z,6.77
2019-04-09T06:46:42.095Z,5.63
2019-04-09T06:49:28.346Z,6.93
2019-04-09T06:52:02.637Z,5.53
2019-04-09T06:54:57.853Z,4.70
2019-04-09T06:57:21.408Z,4.93
2019-04-09T06:59:56.929Z,4.33
2019-04-09T07:02:30.092Z,5.17
2019-04-09T07:05:18.318Z,3.70
2019-04-09T07:07:58.443Z,5.00
2019-04-09T07:10:40.631Z,6.80
2019-04-09T07:13:15.613Z,6.13
2019-04-09T07:15:45.964Z,4.20
2019-04-09T07:18:16.440Z,8.87
2019-04-09T07:20:46.743Z,7.43
2019-04-09T07:23:17.609Z,6.33
2019-04-09T07:26:05.162Z,8.90
2019-04-09T07:28:36.485Z,8.87
2019-04-09T07:31:21.034Z,6.97
2019-04-09T07:33:51.167Z,10.50
2019-04-09T07:36:35.162Z,6.33
2019-04-09T07:39:04.486Z,7.23
2019-04-09T07:41:52.345Z,7.80
2019-04-09T07:44:23.213Z,4.63
2019-04-09T07:47:13.278Z,3.87
2019-04-09T07:49:49.257Z,3.80
2019-04-09T07:52:22.729Z,4.90
2019-04-09T07:55:02.734Z,7.67
2019-04-09T07:57:39.376Z,4.67
2019-04-09T08:00:21.594Z,5.43
2019-04-09T08:02:56.657Z,4.43
2019-04-09T08:05:43.975Z,5.43
2019-04-09T08:08:13.548Z,5.43
2019-04-09T08:11:04.471Z,6.90
2019-04-09T08:13:37.357Z,6.00
2019-04-09T08:16:11.344Z,4.90
2019-04-09T08:18:41.856Z,3.27
2019-04-09T08:21:12.436Z,4.60
2019-04-09T08:23:49.109Z,8.33
2019-04-09T08:26:36.913Z,7.97
2019-04-09T08:29:05.468Z,12.20
2019-04-09T08:31:48.039Z,5.73
2019-04-09T08:34:31.208Z,6.70
2019-04-09T08:37:03.028Z,4.03
2019-04-09T08:39:39.948Z,4.17
2019-04-09T08:42:17.637Z,5.97
2019-04-09T08:44:54.518Z,4.73
2019-04-09T08:47:33.736Z,3.33
2019-04-09T08:50:19.353Z,5.73
2019-04-09T08:53:00.339Z,6.60
2019-04-09T08:55:38.929Z,6.17
2019-04-09T08:58:11.932Z,4.33
2019-04-09T09:03:43.091Z,5.50
2019-04-09T09:06:13.256Z,4.93
2019-04-09T09:08:50.486Z,3.80
2019-04-09T09:11:32.921Z,3.20
2019-04-09T09:14:03.040Z,6.10
2019-04-09T09:16:36.584Z,5.30
2019-04-09T09:19:17.010Z,4.60
2019-04-09T09:21:47.133Z,4.43
2019-04-09T09:24:27.560Z,5.20
2019-04-09T09:27:16.449Z,2.57
2019-04-09T09:30:03.985Z,4.20
2019-04-09T09:32:53.533Z,5.20
2019-04-09T09:35:27.939Z,4.60
2019-04-09T09:37:59.497Z,9.17
2019-04-09T09:40:34.741Z,3.57
2019-04-09T09:43:14.529Z,4.77
2019-04-09T09:45:46.183Z,3.73
2019-04-09T09:48:35.124Z,4.73
2019-04-09T09:51:24.623Z,6.20
2019-04-09T09:54:02.527Z,4.80
2019-04-09T09:56:37.194Z,6.47
2019-04-09T09:59:10.370Z,4.63
2019-04-09T10:02:00.804Z,7.07
2019-04-09T10:04:35.472Z,3.83
2019-04-09T10:07:06.499Z,6.43
2019-04-09T10:09:44.066Z,6.10
2019-04-09T10:12:29.963Z,5.80
2019-04-09T10:15:14.938Z,2.60
2019-04-09T10:17:53.679Z,6.67
2019-04-09T10:20:44.892Z,5.33
2019-04-09T10:23:15.235Z,6.57
2019-04-09T10:26:07.110Z,3.63
2019-04-09T10:28:35.752Z,7.37
2019-04-09T10:31:43.181Z,9.97
2019-04-09T10:34:24.307Z,6.30
2019-04-09T10:37:00.407Z,9.07
2019-04-09T10:39:45.812Z,5.20
2019-04-09T10:42:27.439Z,6.30
2019-04-09T10:45:14.961Z,4.47
2019-04-09T10:47:50.328Z,3.07
2019-04-09T10:50:46.058Z,4.40
2019-04-09T10:56:31.539Z,2.83
2019-04-09T10:59:27.210Z,4.13
2019-04-09T11:02:19.037Z,7.83
2019-04-09T11:05:09.613Z,4.03
2019-04-09T11:08:01.061Z,3.37
2019-04-09T11:10:43.912Z,3.07
2019-04-09T11:13:12.409Z,3.80
2019-04-09T11:16:01.940Z,3.53
2019-04-09T11:18:37.541Z,4.33
2019-04-09T11:21:14.241Z,3.63
2019-04-09T11:24:00.037Z,2.30
2019-04-09T11:29:33.817Z,2.47
2019-04-09T11:32:27.395Z,3.17
2019-04-09T11:35:18.357Z,4.47
2019-04-09T11:37:59.150Z,5.50
2019-04-09T11:43:28.308Z,4.37
2019-04-09T11:45:56.176Z,4.93
2019-04-09T11:48:31.992Z,5.00
2019-04-09T11:51:29.759Z,4.30
2019-04-09T11:54:06.403Z,5.83
2019-04-09T11:57:06.553Z,4.83
2019-04-09T11:59:43.634Z,3.67
2019-04-09T12:02:42.546Z,4.07
2019-04-09T12:05:24.657Z,3.90
2019-04-09T12:08:13.432Z,4.40
2019-04-09T12:10:52.327Z,2.93
2019-04-09T12:13:38.796Z,3.00
2019-04-09T12:16:27.227Z,4.10
2019-04-09T12:19:02.502Z,3.53
2019-04-09T12:21:46.659Z,3.53
2019-04-09T12:24:29.232Z,4.05
2019-04-09T12:27:06.150Z,3.43
2019-04-09T12:29:45.446Z,3.77
2019-04-09T12:32:32.527Z,4.37
2019-04-09T12:35:10.831Z,2.17
2019-04-09T12:37:41.876Z,4.90
2019-04-09T12:40:53.980Z,5.20
2019-04-09T12:47:10.499Z,7.93
2019-04-09T12:50:34.049Z,2.87
2019-04-09T12:53:23.731Z,3.07
2019-04-09T12:55:56.339Z,2.50
2019-04-09T12:58:36.752Z,6.37
2019-04-09T13:01:25.172Z,4.60
2019-04-09T13:04:13.747Z,4.43
2019-04-09T13:06:56.337Z,4.63
2019-04-09T13:09:32.835Z,3.60
2019-04-09T13:12:21.432Z,2.33
2019-04-09T13:15:10.827Z,4.20
2019-04-09T13:23:30.845Z,2.47
2019-04-09T13:29:19.444Z,3.27
2019-04-09T13:38:16.005Z,3.20
2019-04-09T13:40:54.296Z,7.63
2019-04-09T13:43:35.728Z,3.20
2019-04-09T13:46:06.601Z,5.03
2019-04-09T13:48:40.706Z,3.73
2019-04-09T13:51:13.067Z,2.53
2019-04-09T13:53:42.686Z,3.73
2019-04-09T13:56:12.596Z,4.70
2019-04-09T13:58:41.649Z,3.43
2019-04-09T14:01:12.465Z,3.30
2019-04-09T14:03:48.486Z,4.13
2019-04-09T14:06:19.041Z,4.30
2019-04-09T14:08:50.130Z,3.30
2019-04-09T14:11:19.423Z,5.37
2019-04-09T14:13:49.963Z,5.57
2019-04-09T14:16:19.346Z,6.40
2019-04-09T14:18:49.495Z,7.43
2019-04-09T14:21:20.272Z,3.70
2019-04-09T14:23:50.937Z,5.53
2019-04-09T14:26:20.372Z,6.50
2019-04-09T14:28:50.395Z,7.13
2019-04-09T14:31:20.070Z,4.17
2019-04-09T14:33:49.861Z,3.00
2019-04-09T14:36:19.005Z,2.50
2019-04-09T14:38:50.265Z,4.57
2019-04-09T14:41:18.787Z,6.30
2019-04-09T14:43:49.418Z,2.73
2019-04-09T14:46:19.559Z,3.53
2019-04-09T14:48:48.592Z,2.30
2019-04-09T14:51:17.969Z,2.23
2019-04-09T14:53:48.897Z,2.57
2019-04-09T14:56:17.302Z,3.10
2019-04-09T14:58:47.187Z,2.73
2019-04-09T15:01:19.736Z,2.63
2019-04-09T15:03:48.609Z,3.40
2019-04-09T15:06:20.074Z,4.33
2019-04-09T15:08:50.045Z,2.40
2019-04-09T15:11:19.435Z,2.83
2019-04-09T15:13:50.934Z,2.03
2019-04-09T15:16:20.371Z,2.63
2019-04-09T15:18:50.105Z,3.73
2019-04-09T15:24:13.317Z,4.30
2019-04-09T15:26:42.795Z,4.37
2019-04-09T15:29:12.333Z,4.87
2019-04-09T15:31:43.354Z,3.67
2019-04-09T15:34:12.405Z,2.53
2019-04-09T15:36:43.317Z,2.40
2019-04-09T15:39:13.917Z,1.97
2019-04-09T15:41:43.095Z,2.40
2019-04-09T15:44:14.020Z,4.47
2019-04-09T15:46:43.821Z,2.43
2019-04-09T15:49:13.663Z,24.47
2019-04-09T15:51:43.608Z,4.07
2019-04-09T15:54:13.993Z,57.90
2019-04-09T15:56:43.262Z,7.07
2019-04-09T15:59:13.230Z,16.27
2019-04-09T16:01:43.629Z,4.50
2019-04-09T16:04:13.283Z,7.07
2019-04-09T16:06:41.885Z,8.77
2019-04-09T16:09:14.206Z,15.23
2019-04-09T16:11:43.802Z,14.53
2019-04-09T16:14:16.138Z,7.83
2019-04-09T16:16:44.690Z,9.23
2019-04-09T16:19:14.751Z,5.47
2019-04-09T16:21:44.381Z,4.93
2019-04-09T16:24:14.977Z,8.23
2019-04-09T16:26:43.866Z,15.23
2019-04-09T16:29:14.784Z,7.97
2019-04-09T16:31:44.751Z,12.70
2019-04-09T16:34:13.932Z,9.40
2019-04-09T16:36:57.012Z,14.53
2019-04-09T16:39:13.960Z,31.93
2019-04-09T16:41:44.168Z,9.50
2019-04-09T16:44:13.699Z,9.70
2019-04-09T16:46:42.676Z,6.83
2019-04-09T16:49:12.368Z,14.30
2019-04-09T16:51:41.478Z,5.63
2019-04-09T16:54:12.009Z,5.27
2019-04-09T16:56:40.939Z,23.03
2019-04-09T16:59:10.148Z,13.50
2019-04-09T17:01:41.499Z,22.80
2019-04-09T17:04:20.566Z,33.00
2019-04-09T17:06:42.975Z,33.67
2019-04-09T17:11:46.235Z,89.53
2019-04-09T17:14:15.512Z,41.33
2019-04-09T17:16:47.129Z,114.53
2019-04-09T17:19:19.210Z,33.43
2019-04-09T17:19:28.844Z,36.13
2019-04-09T17:21:49.837Z,52.37
2019-04-09T17:24:19.369Z,157.37
2019-04-09T17:35:55.586Z,41.30
2019-04-09T17:38:24.493Z,45.07
2019-04-09T17:40:54.334Z,63.97
2019-04-09T17:46:10.946Z,15.50
2019-04-09T17:48:42.410Z,6.30
2019-04-09T17:57:15.345Z,24.70
2019-04-09T17:59:47.857Z,14.70
2019-04-09T18:02:18.235Z,25.33
2019-04-09T18:04:51.330Z,21.13
2019-04-09T18:07:18.259Z,14.07
2019-04-09T18:09:47.618Z,13.63
2019-04-09T18:12:18.808Z,8.33
2019-04-09T18:14:47.502Z,9.63
2019-04-09T18:17:17.871Z,9.53
2019-04-09T18:19:57.215Z,5.63
2019-04-09T18:22:29.456Z,3.80
2019-04-09T18:24:59.995Z,6.53
2019-04-09T18:27:34.063Z,12.87
2019-04-09T18:35:46.105Z,59.30
2019-04-09T18:38:29.105Z,11.17
2019-04-09T18:41:10.344Z,11.10
2019-04-09T18:43:41.262Z,11.27
2019-04-09T18:46:11.630Z,9.10
2019-04-09T18:48:45.504Z,10.87
2019-04-09T18:51:12.269Z,6.43
2019-04-09T18:53:42.920Z,6.87
2019-04-09T18:56:15.575Z,9.57
2019-04-09T18:58:45.377Z,10.20
2019-04-09T19:01:17.090Z,20.07
2019-04-09T19:03:46.463Z,24.27
2019-04-09T19:06:16.596Z,22.13
2019-04-09T19:08:47.080Z,23.23
2019-04-09T19:11:17.728Z,21.03
2019-04-09T19:13:47.154Z,20.93
2019-04-09T19:16:18.325Z,21.97
2019-04-09T19:18:47.387Z,18.00
2019-04-09T19:21:18.475Z,18.20
2019-04-09T19:23:48.672Z,17.93
2019-04-09T19:26:19.973Z,18.10
2019-04-09T19:28:50.568Z,19.17
2019-04-09T19:31:21.090Z,17.87
2019-04-09T19:33:52.146Z,18.90
2019-04-09T19:36:24.201Z,23.87
2019-04-09T19:38:53.454Z,20.80
2019-04-09T19:41:23.985Z,21.33
2019-04-09T19:43:54.740Z,14.60
2019-04-09T19:46:26.858Z,17.07
2019-04-09T19:48:55.033Z,11.63
2019-04-09T19:51:25.864Z,31.37
2019-04-09T19:53:56.160Z,28.30
2019-04-09T19:56:26.984Z,21.47
2019-04-09T19:58:57.345Z,16.53
2019-04-09T20:01:28.666Z,25.13
2019-04-09T20:04:01.103Z,19.47
2019-04-09T20:06:34.011Z,18.90
2019-04-09T20:09:05.244Z,17.70
2019-04-09T20:11:35.957Z,13.93
2019-04-09T20:14:12.483Z,13.63
2019-04-09T20:16:41.712Z,21.90
2019-04-09T20:19:25.562Z,18.07
2019-04-09T20:21:59.044Z,16.90
2019-04-09T20:24:28.886Z,24.00
2019-04-09T20:26:59.231Z,13.27
2019-04-09T20:29:33.192Z,19.43
2019-04-09T20:32:06.313Z,14.77
2019-04-09T20:34:41.516Z,16.60
2019-04-09T20:37:09.121Z,21.17
2019-04-09T20:39:41.267Z,19.93
2019-04-09T20:42:10.976Z,36.90
2019-04-09T20:44:42.927Z,32.23
2019-04-09T20:47:14.283Z,30.33
2019-04-09T20:49:44.346Z,35.57
2019-04-09T20:52:15.314Z,27.97
2019-04-09T20:54:47.018Z,35.33
2019-04-09T20:57:17.798Z,37.63
2019-04-09T21:00:03.319Z,21.33
2019-04-09T21:02:31.997Z,30.10
2019-04-09T21:05:02.137Z,62.00
2019-04-09T21:07:31.974Z,26.33
2019-04-09T21:10:02.456Z,140.13
2019-04-09T21:12:34.483Z,99.93
2019-04-09T21:15:06.009Z,80.10
2019-04-09T21:17:39.940Z,38.10
2019-04-09T21:20:09.897Z,24.30
2019-04-09T21:22:41.463Z,39.83
2019-04-09T21:25:12.712Z,25.50
2019-04-09T21:27:44.188Z,28.87
2019-04-09T21:30:15.688Z,41.67
2019-04-09T21:32:46.586Z,64.60
2019-04-09T21:35:21.367Z,24.93
2019-04-09T21:37:51.088Z,112.03
2019-04-09T21:40:26.672Z,151.33
2019-04-09T21:42:57.429Z,51.53
2019-04-09T21:45:26.944Z,163.03
2019-04-09T21:47:56.592Z,201.63
2019-04-09T21:50:26.678Z,76.73
2019-04-09T21:52:59.183Z,50.43
2019-04-09T21:55:28.703Z,101.83
2019-04-09T21:57:58.663Z,129.97
2019-04-09T22:00:34.179Z,42.83
2019-04-09T22:03:05.050Z,247.10
2019-04-09T22:05:40.658Z,231.27
2019-04-09T22:08:11.859Z,67.90
2019-04-09T22:10:42.020Z,132.97
2019-04-09T22:13:14.423Z,164.57
2019-04-09T22:15:45.197Z,173.17
2019-04-09T22:18:20.633Z,49.73
2019-04-09T22:20:48.310Z,27.53
2019-04-09T22:23:20.068Z,51.37
2019-04-09T22:25:53.356Z,67.30
2019-04-09T22:28:23.905Z,81.43
2019-04-09T22:30:54.994Z,27.33
2019-04-09T22:33:24.399Z,49.93
2019-04-09T22:35:54.606Z,60.00
2019-04-09T22:38:31.292Z,19.97
2019-04-09T22:41:03.538Z,13.27
2019-04-09T22:43:35.067Z,10.27
2019-04-09T22:46:04.166Z,65.10
2019-04-09T22:48:38.324Z,75.00
2019-04-09T22:51:08.356Z,138.83
2019-04-09T22:53:38.769Z,136.10
2019-04-09T22:56:09.091Z,190.03
2019-04-09T22:58:39.637Z,205.10
2019-04-09T23:01:24.931Z,199.53
2019-04-09T23:04:13.793Z,299.50
2019-04-09T23:06:52.983Z,129.20
2019-04-09T23:09:23.369Z,56.33
2019-04-09T23:12:01.191Z,59.80
2019-04-09T23:14:32.609Z,143.10
2019-04-09T23:17:03.679Z,105.30
2019-04-09T23:19:34.165Z,134.77
2019-04-09T23:22:06.683Z,65.10
2019-04-09T23:24:37.996Z,42.43
2019-04-09T23:27:10.412Z,108.80
2019-04-09T23:29:43.477Z,53.83
2019-04-09T23:32:12.663Z,128.60
2019-04-09T23:34:44.139Z,65.67
2019-04-09T23:37:13.287Z,226.57
2019-04-09T23:39:46.625Z,43.73
2019-04-09T23:42:14.928Z,84.30
2019-04-09T23:44:44.531Z,89.83
2019-04-09T23:47:13.408Z,48.43
2019-04-09T23:49:43.434Z,89.73
2019-04-09T23:52:13.036Z,117.53
2019-04-09T23:54:43.299Z,120.20
2019-04-09T23:57:12.011Z,54.13
2019-04-09T23:59:40.719Z,74.40
